Time;durP1;ratioP1;P1;durP2;ratioP2;P2;SDS_P1;SDS_P2;PMS_P1;PMS_P2;Temp;Humidity;BMP_temperature;BMP_pressure;BME280_temperature;BME280_humidity;BME280_pressure;Samples;Min_cycle;Max_cycle;Signal;HPM_P1;HPM_P2
2023/04/24 00:01:08;;;;;;;1.90;1.80;;;11.60;99.90;;;;;;5049556;28;20697;-78
2023/04/24 00:03:36;;;;;;;1.70;1.60;;;11.60;99.90;;;;;;5052861;28;20572;-78
2023/04/24 00:06:03;;;;;;;1.90;1.80;;;11.50;99.90;;;;;;5056287;28;20218;-78
2023/04/24 00:08:30;;;;;;;2.20;2.03;;;11.50;99.90;;;;;;5053613;28;20632;-77
2023/04/24 00:10:57;;;;;;;1.90;1.80;;;11.50;99.90;;;;;;5054058;28;20195;-77
2023/04/24 00:13:24;;;;;;;1.90;1.80;;;11.50;99.90;;;;;;5054858;28;20227;-78
2023/04/24 00:15:51;;;;;;;1.90;1.80;;;11.40;99.90;;;;;;5053990;28;20229;-78
2023/04/24 00:18:19;;;;;;;1.90;1.80;;;11.40;99.90;;;;;;5055501;28;20225;-77
2023/04/24 00:20:46;;;;;;;2.00;1.90;;;11.40;99.90;;;;;;5054573;28;20217;-77
2023/04/24 00:23:13;;;;;;;2.37;1.80;;;11.30;99.90;;;;;;5054491;28;20198;-78
2023/04/24 00:25:40;;;;;;;2.03;1.70;;;11.30;99.90;;;;;;5055009;28;20673;-77
2023/04/24 00:28:07;;;;;;;1.97;1.87;;;11.30;99.90;;;;;;5054673;28;20222;-78
2023/04/24 00:30:34;;;;;;;2.40;2.20;;;11.30;99.90;;;;;;5054441;28;20690;-78
2023/04/24 00:33:01;;;;;;;2.00;1.90;;;11.30;99.90;;;;;;5047352;28;20277;-77
2023/04/24 00:35:29;;;;;;;1.90;1.80;;;11.30;99.90;;;;;;5055114;28;20204;-77
2023/04/24 00:37:56;;;;;;;2.50;2.00;;;11.30;99.90;;;;;;5053319;28;20273;-77
2023/04/24 00:40:23;;;;;;;1.90;1.80;;;11.30;99.90;;;;;;5052964;28;20260;-77
2023/04/24 00:42:50;;;;;;;1.90;1.80;;;11.30;99.90;;;;;;5054267;28;20209;-78
2023/04/24 00:45:17;;;;;;;2.00;1.90;;;11.30;99.90;;;;;;5054738;28;20218;-77
2023/04/24 00:47:44;;;;;;;2.00;1.90;;;11.30;99.90;;;;;;5052946;28;20255;-78
2023/04/24 00:50:13;;;;;;;1.80;1.70;;;11.40;99.90;;;;;;5056010;28;20626;-78
2023/04/24 00:52:41;;;;;;;1.80;1.70;;;11.30;99.90;;;;;;5054936;28;20259;-78
2023/04/24 00:55:09;;;;;;;2.10;2.00;;;11.30;99.90;;;;;;5054342;28;20224;-77
2023/04/24 00:57:36;;;;;;;2.10;1.90;;;11.30;99.90;;;;;;5053715;28;20231;-78
2023/04/24 01:00:03;;;;;;;3.47;1.93;;;11.40;99.90;;;;;;5052943;28;20719;-77
2023/04/24 01:02:34;;;;;;;2.13;1.93;;;11.30;99.90;;;;;;5053275;28;20207;-78
2023/04/24 01:05:01;;;;;;;1.90;1.80;;;11.30;99.90;;;;;;5053862;28;20234;-78
2023/04/24 01:07:28;;;;;;;1.87;1.77;;;11.40;99.90;;;;;;5053829;28;20211;-78
2023/04/24 01:09:56;;;;;;;1.90;1.80;;;11.30;99.90;;;;;;5053340;28;20256;-78
2023/04/24 01:12:25;;;;;;;1.97;1.87;;;11.30;99.90;;;;;;5053690;28;20698;-78
2023/04/24 01:14:52;;;;;;;1.83;1.80;;;11.30;99.90;;;;;;5054123;28;20192;-78
2023/04/24 01:17:19;;;;;;;2.13;1.90;;;11.40;99.90;;;;;;5053804;28;20722;-79
2023/04/24 01:19:48;;;;;;;1.80;1.70;;;11.30;99.90;;;;;;5054304;28;20226;-78
2023/04/24 01:22:17;;;;;;;2.20;2.00;;;11.40;99.90;;;;;;5052909;28;20199;-77
2023/04/24 01:24:44;;;;;;;1.90;1.80;;;11.40;99.90;;;;;;5054156;28;20234;-77
2023/04/24 01:27:12;;;;;;;1.97;1.83;;;11.40;99.90;;;;;;5070668;28;20214;-77
2023/04/24 01:29:40;;;;;;;2.20;2.10;;;11.40;99.90;;;;;;5053992;28;20209;-78
2023/04/24 01:32:07;;;;;;;2.00;1.90;;;11.40;99.90;;;;;;5052736;28;20206;-79
2023/04/24 01:34:34;;;;;;;1.93;1.83;;;11.40;99.90;;;;;;5052703;28;20240;-78
2023/04/24 01:37:02;;;;;;;2.10;1.90;;;11.30;99.90;;;;;;5051942;28;20221;-78
2023/04/24 01:39:30;;;;;;;2.13;2.00;;;11.20;99.90;;;;;;5052765;28;20302;-78
2023/04/24 01:41:57;;;;;;;2.10;2.00;;;11.20;99.90;;;;;;5053286;28;20279;-78
2023/04/24 01:44:24;;;;;;;2.17;1.90;;;11.10;99.90;;;;;;5052487;28;20217;-78
2023/04/24 01:46:51;;;;;;;2.47;2.03;;;11.00;99.90;;;;;;5052301;28;20226;-77
2023/04/24 01:49:17;;;;;;;2.47;2.10;;;10.90;99.90;;;;;;5053404;28;20205;-78
2023/04/24 01:51:45;;;;;;;2.10;2.00;;;10.80;99.90;;;;;;5053702;28;20207;-77
2023/04/24 01:54:12;;;;;;;2.10;1.90;;;10.80;99.90;;;;;;5052117;28;20225;-78
2023/04/24 01:56:42;;;;;;;1.83;1.73;;;10.80;99.90;;;;;;5053051;28;20229;-77
2023/04/24 01:59:11;;;;;;;2.30;2.10;;;10.70;99.90;;;;;;5050159;28;20221;-78
2023/04/24 02:01:39;;;;;;;2.27;2.10;;;10.70;99.90;;;;;;5052356;28;20270;-77
2023/04/24 02:04:07;;;;;;;2.33;2.10;;;10.70;99.90;;;;;;5050146;28;20715;-78
2023/04/24 02:06:36;;;;;;;2.10;2.00;;;10.70;99.90;;;;;;5052764;28;20217;-78
2023/04/24 02:09:03;;;;;;;2.30;2.20;;;10.70;99.90;;;;;;5051818;28;20204;-77
2023/04/24 02:11:30;;;;;;;2.00;1.90;;;10.70;99.90;;;;;;5051743;28;20233;-78
2023/04/24 02:13:59;;;;;;;2.00;1.90;;;10.70;99.90;;;;;;5053066;28;20216;-77
2023/04/24 02:16:26;;;;;;;2.57;2.37;;;10.70;99.90;;;;;;5057138;28;20256;-78
2023/04/24 02:18:53;;;;;;;2.57;2.30;;;10.70;99.90;;;;;;5054887;28;20218;-77
2023/04/24 02:21:20;;;;;;;3.87;2.40;;;10.80;99.90;;;;;;5057013;28;20619;-78
2023/04/24 02:23:46;;;;;;;2.50;2.10;;;10.80;99.90;;;;;;5057256;28;20206;-78
2023/04/24 02:26:13;;;;;;;2.77;2.20;;;10.80;99.90;;;;;;5055257;28;20213;-78
2023/04/24 02:28:40;;;;;;;2.40;2.20;;;10.80;99.90;;;;;;5057317;28;20194;-78
2023/04/24 02:31:08;;;;;;;3.53;2.33;;;10.80;99.90;;;;;;5057743;28;20612;-77
2023/04/24 02:33:35;;;;;;;2.10;2.00;;;10.80;99.90;;;;;;5054863;28;20206;-77
2023/04/24 02:36:02;;;;;;;2.37;2.20;;;10.80;99.90;;;;;;5055350;28;20244;-77
2023/04/24 02:38:29;;;;;;;2.57;2.20;;;10.80;99.90;;;;;;5056631;28;20709;-77
2023/04/24 02:40:56;;;;;;;2.77;2.57;;;10.80;99.90;;;;;;5056483;28;20204;-77
2023/04/24 02:43:23;;;;;;;2.90;2.60;;;10.70;99.90;;;;;;5056868;28;20236;-78
2023/04/24 02:45:50;;;;;;;6.47;2.50;;;10.60;99.90;;;;;;5071371;28;20220;-77
2023/04/24 02:48:20;;;;;;;2.87;2.30;;;10.60;99.90;;;;;;5055021;28;20197;-77
2023/04/24 02:50:47;;;;;;;2.50;2.30;;;10.50;99.90;;;;;;5055135;28;20192;-80
2023/04/24 02:53:14;;;;;;;3.97;2.67;;;10.50;99.90;;;;;;5060602;28;20193;-81
2023/04/24 02:55:41;;;;;;;3.13;2.50;;;10.50;99.90;;;;;;5054043;28;20196;-79
2023/04/24 02:58:08;;;;;;;2.33;2.20;;;10.60;99.90;;;;;;5051579;28;20244;-80
2023/04/24 03:00:35;;;;;;;2.60;2.40;;;10.60;99.90;;;;;;5055794;28;20201;-79
2023/04/24 03:03:02;;;;;;;2.73;2.53;;;10.60;99.90;;;;;;5054316;28;20210;-80
2023/04/24 03:05:31;;;;;;;2.60;2.40;;;10.60;99.90;;;;;;5053728;28;20213;-79
2023/04/24 03:07:58;;;;;;;2.80;2.60;;;10.60;99.90;;;;;;5053624;28;20247;-79
2023/04/24 03:10:25;;;;;;;2.60;2.40;;;10.70;99.90;;;;;;5053865;28;20211;-79
2023/04/24 03:12:52;;;;;;;2.30;2.20;;;10.80;99.90;;;;;;5053410;28;20212;-79
2023/04/24 03:15:19;;;;;;;2.70;2.50;;;10.80;99.90;;;;;;5053834;28;20681;-80
2023/04/24 03:17:45;;;;;;;2.80;2.60;;;10.80;99.90;;;;;;5055087;28;20248;-80
2023/04/24 03:20:12;;;;;;;3.90;2.60;;;10.80;99.90;;;;;;5053351;28;20255;-78
2023/04/24 03:22:41;;;;;;;2.90;2.63;;;10.70;99.90;;;;;;5048622;28;20197;-78
2023/04/24 03:25:09;;;;;;;2.80;2.60;;;10.60;99.90;;;;;;5053122;28;20200;-78
2023/04/24 03:27:37;;;;;;;2.63;2.37;;;10.60;99.90;;;;;;5052807;28;20213;-78
2023/04/24 03:30:32;;;;;;;2.47;2.37;;;10.60;99.90;;;;;;5048841;28;20203;-79
2023/04/24 03:33:01;;;;;;;2.57;2.40;;;10.60;99.90;;;;;;5046432;28;20770;-81
2023/04/24 03:35:32;;;;;;;2.50;2.40;;;10.50;99.90;;;;;;5051840;28;20204;-81
2023/04/24 03:38:05;;;;;;;2.67;2.50;;;10.50;99.90;;;;;;5055604;28;20221;-81
2023/04/24 03:40:50;;;;;;;2.80;2.60;;;10.50;99.90;;;;;;5065557;28;20575;-82
2023/04/24 03:43:35;;;;;;;3.10;2.80;;;10.50;99.90;;;;;;5056784;28;20275;-82
2023/04/24 03:46:03;;;;;;;2.63;2.37;;;10.40;99.90;;;;;;5062193;28;20222;-81
2023/04/24 03:48:32;;;;;;;2.87;2.67;;;10.30;99.90;;;;;;5071007;28;20222;-81
2023/04/24 03:50:59;;;;;;;4.00;3.63;;;10.30;99.90;;;;;;5052456;28;20200;-82
2023/04/24 03:53:28;;;;;;;4.73;4.37;;;10.30;99.90;;;;;;5052956;28;20253;-84
2023/04/24 03:55:56;;;;;;;4.80;4.50;;;10.30;99.90;;;;;;5043759;28;20491;-82
2023/04/24 03:58:24;;;;;;;4.90;4.60;;;10.30;99.90;;;;;;5059384;28;20251;-83
2023/04/24 04:00:52;;;;;;;4.90;4.50;;;10.20;99.90;;;;;;5053563;28;20215;-82
2023/04/24 04:03:38;;;;;;;4.47;4.17;;;10.20;99.90;;;;;;5059009;28;20218;-83
2023/04/24 04:06:07;;;;;;;4.60;4.30;;;10.20;99.90;;;;;;5052747;28;20250;-83
2023/04/24 04:08:36;;;;;;;4.53;4.33;;;10.20;99.90;;;;;;5060748;28;20207;-82
2023/04/24 04:11:03;;;;;;;4.70;4.40;;;10.20;99.90;;;;;;5052525;28;20203;-82
2023/04/24 04:13:30;;;;;;;4.17;3.97;;;10.20;99.90;;;;;;5051463;28;20200;-81
2023/04/24 04:15:57;;;;;;;4.50;4.20;;;10.20;99.90;;;;;;5051386;28;20219;-82
2023/04/24 04:18:24;;;;;;;4.20;4.00;;;10.10;99.90;;;;;;5052953;28;20211;-82
2023/04/24 04:20:52;;;;;;;4.90;4.60;;;10.10;99.90;;;;;;5051792;28;20416;-82
2023/04/24 04:23:18;;;;;;;4.70;4.40;;;10.20;99.90;;;;;;5051378;28;20237;-83
2023/04/24 04:26:00;;;;;;;4.40;4.20;;;10.10;99.90;;;;;;5051680;28;20219;-82
2023/04/24 04:28:39;;;;;;;5.03;4.53;;;10.20;99.90;;;;;;5052353;28;20191;-82
2023/04/24 04:31:07;;;;;;;5.20;4.80;;;10.20;99.90;;;;;;5051283;28;20688;-83
2023/04/24 04:33:35;;;;;;;5.17;4.70;;;10.30;99.90;;;;;;5055154;28;20250;-85
2023/04/24 04:36:03;;;;;;;5.17;4.70;;;10.30;99.90;;;;;;5055894;28;20224;-81
2023/04/24 04:38:32;;;;;;;4.80;4.50;;;10.40;99.90;;;;;;5053649;28;20226;-82
2023/04/24 04:41:08;;;;;;;4.33;4.00;;;10.40;99.90;;;;;;5053518;28;20204;-81
2023/04/24 04:43:36;;;;;;;4.20;3.97;;;10.40;99.90;;;;;;5050510;28;20653;-81
2023/04/24 04:46:04;;;;;;;4.60;3.47;;;10.50;99.90;;;;;;5050681;28;20223;-82
2023/04/24 04:48:59;;;;;;;3.60;3.30;;;10.40;99.90;;;;;;5052170;28;20798;-78
2023/04/24 04:51:26;;;;;;;3.70;3.40;;;10.40;99.90;;;;;;5038107;28;20241;-77
2023/04/24 04:53:53;;;;;;;3.90;3.57;;;10.40;99.90;;;;;;5052073;28;20232;-77
2023/04/24 04:56:22;;;;;;;3.90;3.60;;;10.30;99.90;;;;;;5051540;28;20222;-77
2023/04/24 04:58:50;;;;;;;5.03;4.50;;;10.30;99.90;;;;;;5052622;28;20215;-78
2023/04/24 05:01:18;;;;;;;4.13;3.83;;;10.30;99.90;;;;;;5052499;28;20204;-77
2023/04/24 05:03:47;;;;;;;4.00;3.80;;;10.30;99.90;;;;;;5051970;28;20191;-79
2023/04/24 05:06:16;;;;;;;3.73;3.53;;;10.30;99.90;;;;;;5051553;28;20234;-77
2023/04/24 05:08:45;;;;;;;4.03;3.60;;;10.30;99.90;;;;;;5052293;28;20191;-77
2023/04/24 05:11:24;;;;;;;3.60;3.40;;;10.30;99.90;;;;;;5044449;28;20225;-77
2023/04/24 05:13:52;;;;;;;5.10;4.80;;;10.20;99.90;;;;;;5051834;28;20231;-77
2023/04/24 05:16:23;;;;;;;4.63;4.40;;;10.20;99.90;;;;;;5051799;28;20490;-77
2023/04/24 05:18:53;;;;;;;4.60;4.30;;;10.20;99.90;;;;;;5051863;28;20226;-77
2023/04/24 05:21:25;;;;;;;4.60;4.30;;;10.20;99.90;;;;;;5056956;28;20210;-80
2023/04/24 05:23:52;;;;;;;5.63;5.03;;;10.10;99.90;;;;;;5054359;28;20224;-77
2023/04/24 05:26:33;;;;;;;5.13;4.73;;;10.20;99.90;;;;;;5049033;28;20749;-79
2023/04/24 05:29:01;;;;;;;4.93;4.63;;;10.20;99.90;;;;;;5052042;28;20200;-79
2023/04/24 05:31:27;;;;;;;4.80;4.50;;;10.20;99.90;;;;;;5052174;28;20226;-79
2023/04/24 05:33:55;;;;;;;4.93;4.63;;;10.20;99.90;;;;;;5052229;28;20672;-77
2023/04/24 05:36:22;;;;;;;5.27;4.90;;;10.20;99.90;;;;;;5046663;28;20741;-78
2023/04/24 05:38:49;;;;;;;5.40;5.00;;;10.20;99.90;;;;;;5052368;28;20691;-80
2023/04/24 05:41:16;;;;;;;5.10;4.70;;;10.10;99.90;;;;;;5045963;28;20222;-78
2023/04/24 05:43:44;;;;;;;4.67;4.37;;;10.10;99.90;;;;;;5058795;28;20204;-79
2023/04/24 05:46:12;;;;;;;4.80;4.40;;;10.10;99.90;;;;;;5049216;28;20251;-78
2023/04/24 05:48:39;;;;;;;4.90;4.60;;;10.00;99.90;;;;;;5068610;28;20196;-80
2023/04/24 05:51:06;;;;;;;4.90;4.60;;;10.00;99.90;;;;;;5054744;28;20209;-82
2023/04/24 05:53:34;;;;;;;5.20;4.80;;;10.10;99.90;;;;;;5052091;28;20281;-79
2023/04/24 05:56:01;;;;;;;4.80;4.50;;;10.10;99.90;;;;;;5053128;28;20226;-77
2023/04/24 05:58:28;;;;;;;3.87;3.57;;;10.10;99.90;;;;;;5054142;28;20219;-78
2023/04/24 06:00:58;;;;;;;3.70;3.40;;;10.10;99.90;;;;;;5054563;28;20715;-77
2023/04/24 06:03:26;;;;;;;3.70;3.40;;;10.20;99.90;;;;;;5048782;28;20273;-77
2023/04/24 06:05:53;;;;;;;3.53;3.23;;;10.20;99.90;;;;;;5051807;28;20247;-76
2023/04/24 06:08:21;;;;;;;4.40;4.10;;;10.30;99.90;;;;;;5043808;28;20218;-77
2023/04/24 06:10:49;;;;;;;5.17;4.77;;;10.50;99.90;;;;;;5084319;28;20668;-77
2023/04/24 06:13:19;;;;;;;4.90;4.50;;;10.60;99.90;;;;;;5053564;28;20261;-77
2023/04/24 06:16:06;;;;;;;3.50;3.20;;;10.80;99.90;;;;;;5054330;28;20249;-77
2023/04/24 06:18:37;;;;;;;3.37;3.17;;;11.00;99.90;;;;;;5048136;28;20216;-77
2023/04/24 06:21:05;;;;;;;3.13;2.93;;;11.10;99.90;;;;;;5053785;28;20232;-77
2023/04/24 06:23:32;;;;;;;3.23;3.03;;;11.20;99.90;;;;;;5054346;28;20250;-77
2023/04/24 06:25:59;;;;;;;3.07;2.80;;;11.20;99.90;;;;;;5053600;28;20274;-78
2023/04/24 06:28:27;;;;;;;3.50;3.20;;;11.40;99.90;;;;;;5054568;28;20206;-77
2023/04/24 06:30:53;;;;;;;3.00;2.87;;;11.60;99.90;;;;;;5054172;28;20199;-77
2023/04/24 06:33:21;;;;;;;3.27;2.97;;;11.70;99.90;;;;;;5053717;28;20205;-77
2023/04/24 06:35:48;;;;;;;3.37;3.10;;;11.70;99.90;;;;;;5054378;28;20251;-77
2023/04/24 06:38:15;;;;;;;4.90;3.20;;;11.80;99.90;;;;;;5056025;28;20285;-77
2023/04/24 06:40:42;;;;;;;3.77;3.20;;;12.20;99.90;;;;;;5055722;28;20206;-77
2023/04/24 06:43:09;;;;;;;3.33;3.13;;;12.40;99.90;;;;;;5065925;28;20231;-78
2023/04/24 06:45:36;;;;;;;3.30;3.00;;;12.60;99.90;;;;;;5048721;28;20199;-77
2023/04/24 06:48:03;;;;;;;3.43;3.20;;;12.60;99.90;;;;;;5047989;28;20196;-77
2023/04/24 06:50:31;;;;;;;4.03;3.00;;;12.80;99.90;;;;;;5054341;28;20246;-77
2023/04/24 06:52:58;;;;;;;3.50;3.20;;;12.90;99.90;;;;;;5048616;28;20202;-77
2023/04/24 06:55:25;;;;;;;3.73;3.10;;;13.00;99.90;;;;;;5055626;28;20225;-77
2023/04/24 06:57:51;;;;;;;3.33;3.13;;;13.10;99.90;;;;;;5054173;28;20280;-77
2023/04/24 07:00:19;;;;;;;3.77;3.40;;;13.20;99.90;;;;;;5057154;28;20301;-77
2023/04/24 07:02:45;;;;;;;3.30;3.10;;;13.40;99.90;;;;;;5058207;28;20249;-77
2023/04/24 07:05:12;;;;;;;3.37;3.07;;;13.60;99.90;;;;;;5059119;28;20230;-77
2023/04/24 07:07:42;;;;;;;3.03;2.83;;;13.70;99.90;;;;;;5057129;28;20691;-77
2023/04/24 07:10:10;;;;;;;3.43;2.80;;;13.70;99.90;;;;;;5057808;28;20195;-77
2023/04/24 07:12:37;;;;;;;3.10;2.90;;;14.00;99.90;;;;;;5058454;28;20225;-77
2023/04/24 07:15:04;;;;;;;2.70;2.53;;;14.10;99.90;;;;;;5054651;28;20295;-77
2023/04/24 07:17:31;;;;;;;2.70;2.60;;;14.40;99.90;;;;;;5056032;28;20226;-78
2023/04/24 07:19:58;;;;;;;3.90;3.00;;;14.80;99.90;;;;;;5054846;28;20481;-78
2023/04/24 07:22:25;;;;;;;3.30;3.00;;;15.00;99.90;;;;;;5045233;28;20198;-79
2023/04/24 07:24:53;;;;;;;3.10;2.80;;;14.80;99.90;;;;;;5064237;28;20223;-79
2023/04/24 07:27:20;;;;;;;2.60;2.50;;;14.60;99.90;;;;;;5054840;28;20656;-78
2023/04/24 07:29:47;;;;;;;3.17;2.87;;;14.60;99.90;;;;;;5053388;28;20473;-77
2023/04/24 07:32:13;;;;;;;3.00;2.80;;;14.70;99.90;;;;;;5053676;28;20201;-78
2023/04/24 07:34:40;;;;;;;2.80;2.60;;;14.90;99.90;;;;;;5056432;28;20199;-78
2023/04/24 07:37:07;;;;;;;3.13;2.80;;;15.10;99.90;;;;;;5055156;28;20219;-77
2023/04/24 07:39:34;;;;;;;3.10;2.90;;;15.10;99.90;;;;;;5055493;28;20281;-77
2023/04/24 07:42:02;;;;;;;3.10;2.90;;;15.20;99.90;;;;;;5054018;28;20667;-77
2023/04/24 07:44:29;;;;;;;2.80;2.60;;;14.80;99.90;;;;;;5054999;28;20201;-78
2023/04/24 07:46:56;;;;;;;2.90;2.70;;;14.60;99.90;;;;;;5055454;28;20704;-78
2023/04/24 07:49:23;;;;;;;3.17;2.70;;;14.90;99.90;;;;;;5054894;28;20198;-79
2023/04/24 07:51:50;;;;;;;2.50;2.40;;;14.90;99.90;;;;;;5055334;28;20209;-77
2023/04/24 07:54:17;;;;;;;6.93;4.63;;;15.20;99.90;;;;;;5056553;28;20255;-78
2023/04/24 07:56:45;;;;;;;3.03;2.83;;;15.60;99.90;;;;;;5054109;28;20223;-79
2023/04/24 07:59:13;;;;;;;2.83;2.63;;;15.70;99.90;;;;;;5053607;28;20265;-80
2023/04/24 08:01:40;;;;;;;2.60;2.40;;;15.60;99.90;;;;;;5053536;28;20198;-79
2023/04/24 08:04:07;;;;;;;2.80;2.60;;;15.60;99.90;;;;;;5054256;28;20217;-79
2023/04/24 08:06:34;;;;;;;3.33;3.00;;;15.70;99.90;;;;;;5055823;28;20637;-76
2023/04/24 08:09:01;;;;;;;3.20;2.90;;;15.50;99.90;;;;;;5057163;28;20245;-78
2023/04/24 08:11:28;;;;;;;2.67;2.47;;;15.30;99.90;;;;;;5049503;28;20187;-76
2023/04/24 08:13:55;;;;;;;2.90;2.70;;;15.30;99.90;;;;;;5057886;28;20222;-77
2023/04/24 08:16:23;;;;;;;3.23;2.70;;;15.10;99.90;;;;;;5057369;28;20223;-77
2023/04/24 08:18:50;;;;;;;3.07;2.50;;;14.90;99.90;;;;;;5057572;28;20556;-76
2023/04/24 08:21:18;;;;;;;2.60;2.40;;;14.80;99.90;;;;;;5055120;28;20199;-80
2023/04/24 08:23:45;;;;;;;2.60;2.50;;;14.60;99.90;;;;;;5052339;28;20203;-80
2023/04/24 08:26:12;;;;;;;2.90;2.70;;;14.20;99.90;;;;;;5051034;28;20656;-77
2023/04/24 08:28:39;;;;;;;2.47;2.30;;;13.90;99.90;;;;;;5053310;28;20196;-77
2023/04/24 08:31:06;;;;;;;2.37;2.17;;;13.70;99.90;;;;;;5052786;28;20634;-77
2023/04/24 08:33:34;;;;;;;2.87;2.57;;;13.50;99.90;;;;;;5049931;28;20260;-77
2023/04/24 08:36:02;;;;;;;2.77;2.50;;;13.40;99.90;;;;;;5051968;28;20285;-77
2023/04/24 08:38:29;;;;;;;3.77;3.17;;;13.30;99.90;;;;;;5047367;28;20201;-77
2023/04/24 08:40:59;;;;;;;2.73;2.50;;;13.20;99.90;;;;;;5053835;28;20226;-77
2023/04/24 08:43:26;;;;;;;4.40;3.10;;;13.20;99.90;;;;;;5053115;28;20199;-77
2023/04/24 08:45:53;;;;;;;3.17;2.63;;;13.10;99.90;;;;;;5053272;28;20221;-77
2023/04/24 08:48:22;;;;;;;2.83;2.63;;;13.10;99.90;;;;;;5051822;28;20287;-77
2023/04/24 08:50:51;;;;;;;3.10;2.80;;;13.10;99.90;;;;;;5049894;28;20188;-77
2023/04/24 08:53:19;;;;;;;2.87;2.67;;;12.90;99.90;;;;;;5053101;28;20614;-77
2023/04/24 08:55:48;;;;;;;2.90;2.70;;;12.90;99.90;;;;;;5052157;28;20207;-77
2023/04/24 08:58:17;;;;;;;3.47;3.07;;;13.10;99.90;;;;;;5051811;28;20228;-77
2023/04/24 09:00:46;;;;;;;4.17;2.63;;;13.70;99.90;;;;;;5053527;28;20711;-77
2023/04/24 09:03:15;;;;;;;3.50;2.70;;;14.00;99.90;;;;;;5052448;28;20286;-77
2023/04/24 09:05:45;;;;;;;2.70;2.50;;;14.20;99.90;;;;;;5052189;28;20286;-77
2023/04/24 09:08:14;;;;;;;2.50;2.30;;;14.80;99.90;;;;;;5052257;28;20197;-77
2023/04/24 09:10:42;;;;;;;3.73;2.90;;;15.30;99.90;;;;;;5053558;28;20219;-77
2023/04/24 09:13:10;;;;;;;4.33;2.60;;;15.60;99.90;;;;;;5051704;28;20631;-77
2023/04/24 09:15:36;;;;;;;3.10;2.80;;;16.20;99.90;;;;;;5053369;28;20188;-77
2023/04/24 09:18:03;;;;;;;3.00;2.70;;;16.60;99.90;;;;;;5052534;28;20203;-78
2023/04/24 09:20:30;;;;;;;2.70;2.57;;;17.00;99.90;;;;;;5052925;28;20211;-77
2023/04/24 09:22:58;;;;;;;3.03;2.73;;;17.30;99.90;;;;;;5049795;28;20191;-78
2023/04/24 09:25:33;;;;;;;4.47;2.70;;;17.50;99.90;;;;;;5053095;28;20281;-77
2023/04/24 09:28:02;;;;;;;5.53;2.77;;;17.50;99.90;;;;;;5052205;28;20191;-77
2023/04/24 09:30:29;;;;;;;2.93;2.70;;;17.40;99.90;;;;;;5053252;28;20269;-77
2023/04/24 09:33:11;;;;;;;2.93;2.67;;;17.40;99.90;;;;;;5052621;28;20246;-79
2023/04/24 09:35:42;;;;;;;3.30;3.00;;;17.80;99.90;;;;;;5053310;28;20195;-80
2023/04/24 09:38:09;;;;;;;2.97;2.77;;;18.00;99.90;;;;;;5049792;28;20266;-78
2023/04/24 09:40:37;;;;;;;2.93;2.70;;;17.90;99.90;;;;;;5053638;28;20220;-78
2023/04/24 09:43:04;;;;;;;3.63;2.60;;;17.50;99.90;;;;;;5054845;28;20251;-79
2023/04/24 09:45:36;;;;;;;4.50;2.53;;;17.40;99.90;;;;;;5054142;28;20604;-78
2023/04/24 09:48:04;;;;;;;3.43;2.63;;;17.20;99.90;;;;;;5055541;28;20200;-78
2023/04/24 09:50:34;;;;;;;3.83;2.60;;;17.00;99.90;;;;;;5052834;28;20191;-79
2023/04/24 09:53:03;;;;;;;4.80;2.90;;;16.90;99.90;;;;;;5053171;28;20591;-78
2023/04/24 09:55:30;;;;;;;3.87;2.60;;;16.60;99.90;;;;;;5054836;28;20191;-79
2023/04/24 09:58:00;;;;;;;6.10;2.73;;;16.50;99.90;;;;;;5054799;28;20239;-79
2023/04/24 10:00:29;;;;;;;3.17;2.40;;;16.60;99.90;;;;;;5053219;28;20215;-78
2023/04/24 10:02:57;;;;;;;2.97;2.40;;;17.10;99.90;;;;;;5054018;28;20219;-78
2023/04/24 10:05:25;;;;;;;2.60;2.40;;;17.50;99.90;;;;;;5053182;28;20291;-79
2023/04/24 10:07:56;;;;;;;2.80;2.30;;;18.00;99.90;;;;;;5055889;28;20914;-78
2023/04/24 10:10:24;;;;;;;3.63;2.63;;;17.50;99.90;;;;;;5052461;28;20205;-77
2023/04/24 10:12:52;;;;;;;4.83;2.50;;;17.20;99.90;;;;;;5052106;28;20661;-77
2023/04/24 10:15:21;;;;;;;2.53;2.37;;;16.40;99.90;;;;;;5051422;28;20249;-77
2023/04/24 10:17:52;;;;;;;4.87;2.20;;;15.60;99.90;;;;;;5051871;28;20219;-76
2023/04/24 10:20:20;;;;;;;4.23;2.40;;;15.40;99.90;;;;;;5048312;28;20608;-77
2023/04/24 10:22:51;;;;;;;2.13;2.03;;;15.20;99.90;;;;;;5051781;28;20238;-77
2023/04/24 10:25:20;;;;;;;3.83;2.40;;;15.30;99.90;;;;;;5050292;28;20248;-77
2023/04/24 10:27:48;;;;;;;3.20;2.13;;;15.70;99.90;;;;;;5050576;28;20222;-77
2023/04/24 10:30:15;;;;;;;2.60;2.40;;;16.10;99.90;;;;;;5050679;28;20721;-76
2023/04/24 10:32:43;;;;;;;2.40;2.20;;;16.10;99.90;;;;;;5050090;28;20274;-77
2023/04/24 10:35:12;;;;;;;2.63;2.43;;;16.30;99.90;;;;;;5052581;28;20213;-77
2023/04/24 10:37:42;;;;;;;2.30;2.10;;;16.30;99.90;;;;;;5054719;28;20635;-77
2023/04/24 10:40:10;;;;;;;3.23;2.23;;;16.30;99.90;;;;;;5054078;28;20273;-76
2023/04/24 10:42:42;;;;;;;2.50;2.20;;;16.20;99.90;;;;;;5053877;28;20198;-77
2023/04/24 10:45:17;;;;;;;2.03;1.90;;;16.20;99.90;;;;;;5055047;28;20203;-77
2023/04/24 10:47:52;;;;;;;3.13;2.30;;;16.10;99.90;;;;;;5053915;28;20280;-76
2023/04/24 10:50:19;;;;;;;2.33;1.97;;;15.90;99.90;;;;;;5053935;28;20210;-77
2023/04/24 10:52:46;;;;;;;2.40;2.20;;;15.70;99.90;;;;;;5053854;28;20244;-77
2023/04/24 10:55:14;;;;;;;2.33;2.10;;;15.60;99.90;;;;;;5053630;28;20194;-77
2023/04/24 10:57:41;;;;;;;2.30;2.20;;;15.40;99.90;;;;;;5053717;28;20233;-76
2023/04/24 11:00:15;;;;;;;2.37;2.27;;;15.40;99.90;;;;;;5056251;28;20351;-76
2023/04/24 11:02:48;;;;;;;2.47;2.37;;;15.20;99.90;;;;;;5053821;28;20206;-78
2023/04/24 11:05:18;;;;;;;2.30;2.20;;;15.00;99.90;;;;;;5054898;28;20195;-77
2023/04/24 11:08:14;;;;;;;2.33;2.13;;;14.90;99.90;;;;;;5054413;28;20218;-78
2023/04/24 11:10:44;;;;;;;3.37;2.33;;;14.90;99.90;;;;;;5056307;28;20581;-80
2023/04/24 11:13:11;;;;;;;3.37;2.40;;;14.90;99.90;;;;;;5054197;28;20206;-79
2023/04/24 11:15:37;;;;;;;2.73;2.33;;;14.90;99.90;;;;;;5054210;28;20202;-80
2023/04/24 11:18:05;;;;;;;2.43;2.33;;;14.90;99.90;;;;;;5053815;28;20199;-80
2023/04/24 11:20:33;;;;;;;2.43;2.30;;;14.90;99.90;;;;;;5053366;28;20219;-78
2023/04/24 11:23:04;;;;;;;2.20;2.10;;;15.00;99.90;;;;;;5048951;28;20576;-78
2023/04/24 11:25:32;;;;;;;2.30;2.10;;;15.30;99.90;;;;;;5054426;28;20624;-79
2023/04/24 11:28:05;;;;;;;2.30;2.10;;;15.50;99.90;;;;;;5057919;28;20278;-78
2023/04/24 11:30:33;;;;;;;2.30;2.20;;;15.80;99.90;;;;;;5053627;28;20456;-80
2023/04/24 11:33:04;;;;;;;3.27;2.40;;;15.60;99.90;;;;;;5052661;28;20678;-79
2023/04/24 11:35:37;;;;;;;2.33;2.20;;;15.40;99.90;;;;;;5054236;28;20201;-78
2023/04/24 11:38:06;;;;;;;2.83;2.10;;;15.40;99.90;;;;;;5054795;28;20240;-80
2023/04/24 11:40:32;;;;;;;2.40;2.20;;;15.50;99.90;;;;;;5054126;28;20633;-78
2023/04/24 11:43:01;;;;;;;2.30;2.10;;;15.20;99.90;;;;;;5052955;28;20253;-78
2023/04/24 11:45:29;;;;;;;2.20;2.00;;;15.30;99.90;;;;;;5053501;28;20203;-79
2023/04/24 11:47:58;;;;;;;2.10;1.90;;;15.20;99.90;;;;;;5051864;28;20671;-80
2023/04/24 11:50:28;;;;;;;2.00;1.90;;;15.10;99.90;;;;;;5055957;28;20266;-79
2023/04/24 11:52:55;;;;;;;2.30;2.10;;;15.10;99.90;;;;;;5053066;28;20198;-78
2023/04/24 11:55:28;;;;;;;2.20;2.10;;;15.10;99.90;;;;;;5053567;28;20260;-80
2023/04/24 11:57:57;;;;;;;1.90;1.80;;;15.00;99.90;;;;;;5052762;28;20204;-76
2023/04/24 12:00:26;;;;;;;2.80;2.10;;;15.00;99.90;;;;;;5052769;28;20628;-79
2023/04/24 12:03:04;;;;;;;2.00;1.90;;;15.10;99.90;;;;;;5051630;28;20200;-78
2023/04/24 12:05:31;;;;;;;2.37;2.00;;;15.20;99.90;;;;;;5050372;28;20216;-79
2023/04/24 12:07:58;;;;;;;2.60;2.10;;;15.30;99.90;;;;;;5052382;28;20257;-79
2023/04/24 12:10:28;;;;;;;2.20;2.10;;;15.20;99.90;;;;;;5045625;28;20188;-79
2023/04/24 12:12:57;;;;;;;2.00;1.90;;;15.10;99.90;;;;;;5054145;28;20248;-78
2023/04/24 12:15:25;;;;;;;2.37;2.07;;;15.10;99.90;;;;;;5053097;28;20729;-80
2023/04/24 12:17:53;;;;;;;2.40;2.20;;;15.30;99.90;;;;;;5051904;28;20245;-79
2023/04/24 12:20:25;;;;;;;2.43;2.23;;;15.40;99.90;;;;;;5051612;28;20199;-79
2023/04/24 12:22:54;;;;;;;2.30;2.10;;;15.50;99.90;;;;;;5052694;28;20222;-78
2023/04/24 12:25:22;;;;;;;2.73;2.23;;;15.30;99.90;;;;;;5051868;28;20210;-79
2023/04/24 12:27:55;;;;;;;2.77;2.00;;;15.00;99.90;;;;;;5053052;28;20639;-79
2023/04/24 12:30:27;;;;;;;2.00;1.80;;;14.80;99.90;;;;;;5051760;28;20297;-79
2023/04/24 12:32:54;;;;;;;2.47;2.27;;;14.80;99.90;;;;;;5051465;28;20264;-79
2023/04/24 12:35:23;;;;;;;3.03;2.00;;;14.80;99.90;;;;;;5053092;28;20203;-79
2023/04/24 12:37:50;;;;;;;2.43;2.23;;;14.90;99.90;;;;;;5051382;28;20221;-78
2023/04/24 12:40:18;;;;;;;2.60;2.30;;;15.00;99.90;;;;;;5052902;28;20195;-78
2023/04/24 12:42:46;;;;;;;2.33;2.13;;;14.90;99.90;;;;;;5046613;28;20195;-79
2023/04/24 12:45:15;;;;;;;2.40;2.20;;;14.80;99.90;;;;;;5047500;28;20197;-79
2023/04/24 12:47:43;;;;;;;2.20;2.10;;;14.60;99.90;;;;;;5053049;28;20222;-79
2023/04/24 12:50:12;;;;;;;2.40;2.30;;;14.40;99.90;;;;;;5068210;28;20222;-78
2023/04/24 12:52:38;;;;;;;2.13;2.03;;;14.40;99.90;;;;;;5050959;28;20210;-79
2023/04/24 12:55:07;;;;;;;2.63;2.50;;;14.40;99.90;;;;;;5057217;28;20227;-79